sensor_id;sensor_type;location;lat;lon;timestamp;pressure;altitude;pressure_sealevel;temperature;humidity
73700;BME280;62005;50.082;8.988;2023-07-09T00:01:18;100691.38;;;23.73;55.83
73700;BME280;62005;50.082;8.988;2023-07-09T00:03:46;100699.44;;;23.69;56.63
73700;BME280;62005;50.082;8.988;2023-07-09T00:06:16;100697.06;;;23.63;54.38
73700;BME280;62005;50.082;8.988;2023-07-09T00:08:44;100696.69;;;23.51;55.43
73700;BME280;62005;50.082;8.988;2023-07-09T00:11:12;100703.34;;;23.50;55.16
73700;BME280;62005;50.082;8.988;2023-07-09T00:13:37;100697.31;;;23.48;55.02
73700;BME280;62005;50.082;8.988;2023-07-09T00:16:10;100695.16;;;23.45;55.25
73700;BME280;62005;50.082;8.988;2023-07-09T00:18:36;100702.91;;;23.43;56.04
73700;BME280;62005;50.082;8.988;2023-07-09T00:21:02;100711.25;;;23.38;56.52
73700;BME280;62005;50.082;8.988;2023-07-09T00:23:27;100707.75;;;23.32;56.49
73700;BME280;62005;50.082;8.988;2023-07-09T00:25:52;100710.91;;;23.20;57.38
73700;BME280;62005;50.082;8.988;2023-07-09T00:28:19;100714.56;;;23.16;57.33
73700;BME280;62005;50.082;8.988;2023-07-09T00:30:46;100709.56;;;22.99;57.42
73700;BME280;62005;50.082;8.988;2023-07-09T00:33:12;100718.97;;;22.98;57.50
73700;BME280;62005;50.082;8.988;2023-07-09T00:35:47;100723.41;;;22.94;57.87
73700;BME280;62005;50.082;8.988;2023-07-09T00:38:20;100731.75;;;22.89;57.73
73700;BME280;62005;50.082;8.988;2023-07-09T00:43:30;100729.78;;;22.71;57.82
73700;BME280;62005;50.082;8.988;2023-07-09T00:48:43;100722.16;;;22.63;58.18
73700;BME280;62005;50.082;8.988;2023-07-09T00:51:12;100733.22;;;22.58;58.57
73700;BME280;62005;50.082;8.988;2023-07-09T00:53:38;100723.94;;;22.54;58.99
73700;BME280;62005;50.082;8.988;2023-07-09T00:56:13;100724.47;;;22.51;58.63
73700;BME280;62005;50.082;8.988;2023-07-09T00:58:45;100719.06;;;22.41;59.02
73700;BME280;62005;50.082;8.988;2023-07-09T01:01:18;100724.00;;;22.44;58.72
73700;BME280;62005;50.082;8.988;2023-07-09T01:06:09;100726.91;;;22.29;59.75
73700;BME280;62005;50.082;8.988;2023-07-09T01:08:37;100718.22;;;22.17;59.09
73700;BME280;62005;50.082;8.988;2023-07-09T01:11:15;100736.16;;;22.15;59.28
73700;BME280;62005;50.082;8.988;2023-07-09T01:13:51;100712.69;;;21.88;59.45
73700;BME280;62005;50.082;8.988;2023-07-09T01:16:18;100743.72;;;21.99;59.48
73700;BME280;62005;50.082;8.988;2023-07-09T01:18:46;100720.72;;;21.85;59.04
73700;BME280;62005;50.082;8.988;2023-07-09T01:21:11;100708.69;;;21.71;59.30
73700;BME280;62005;50.082;8.988;2023-07-09T01:23:44;100732.88;;;21.79;59.37
73700;BME280;62005;50.082;8.988;2023-07-09T01:26:11;100743.06;;;21.78;59.96
73700;BME280;62005;50.082;8.988;2023-07-09T01:28:38;100739.22;;;21.74;60.25
73700;BME280;62005;50.082;8.988;2023-07-09T01:31:07;100734.09;;;21.63;60.34
73700;BME280;62005;50.082;8.988;2023-07-09T01:33:33;100731.94;;;21.55;60.94
73700;BME280;62005;50.082;8.988;2023-07-09T01:35:58;100744.59;;;21.56;60.55
73700;BME280;62005;50.082;8.988;2023-07-09T01:38:26;100745.44;;;21.51;60.74
73700;BME280;62005;50.082;8.988;2023-07-09T01:40:56;100734.78;;;21.40;62.54
73700;BME280;62005;50.082;8.988;2023-07-09T01:43:22;100747.72;;;21.39;60.62
73700;BME280;62005;50.082;8.988;2023-07-09T01:45:47;100746.41;;;21.32;61.25
73700;BME280;62005;50.082;8.988;2023-07-09T01:48:15;100745.31;;;21.28;61.43
73700;BME280;62005;50.082;8.988;2023-07-09T01:50:41;100759.88;;;21.28;61.89
73700;BME280;62005;50.082;8.988;2023-07-09T01:53:10;100750.84;;;21.23;62.67
73700;BME280;62005;50.082;8.988;2023-07-09T01:55:36;100753.63;;;21.18;62.45
73700;BME280;62005;50.082;8.988;2023-07-09T01:58:01;100758.59;;;21.11;62.58
73700;BME280;62005;50.082;8.988;2023-07-09T02:00:32;100741.03;;;20.97;62.70
73700;BME280;62005;50.082;8.988;2023-07-09T02:02:57;100754.81;;;21.02;62.84
73700;BME280;62005;50.082;8.988;2023-07-09T02:05:25;100754.81;;;21.02;63.42
73700;BME280;62005;50.082;8.988;2023-07-09T02:07:51;100747.63;;;21.01;63.62
73700;BME280;62005;50.082;8.988;2023-07-09T02:10:17;100745.72;;;20.96;64.06
73700;BME280;62005;50.082;8.988;2023-07-09T02:12:43;100747.63;;;21.01;64.44
73700;BME280;62005;50.082;8.988;2023-07-09T02:15:09;100763.34;;;21.00;65.02
73700;BME280;62005;50.082;8.988;2023-07-09T02:17:35;100749.31;;;20.92;64.87
73700;BME280;62005;50.082;8.988;2023-07-09T02:20:01;100761.41;;;20.96;65.09
73700;BME280;62005;50.082;8.988;2023-07-09T02:22:26;100754.81;;;20.92;65.48
73700;BME280;62005;50.082;8.988;2023-07-09T02:24:51;100754.81;;;20.92;64.70
73700;BME280;62005;50.082;8.988;2023-07-09T02:27:20;100754.81;;;20.92;64.80
73700;BME280;62005;50.082;8.988;2023-07-09T02:29:47;100762.50;;;20.90;65.44
73700;BME280;62005;50.082;8.988;2023-07-09T02:32:23;100760.34;;;20.82;66.06
73700;BME280;62005;50.082;8.988;2023-07-09T02:34:50;100761.47;;;20.76;65.01
73700;BME280;62005;50.082;8.988;2023-07-09T02:37:18;100763.13;;;20.71;66.26
73700;BME280;62005;50.082;8.988;2023-07-09T02:39:44;100773.00;;;20.72;65.71
73700;BME280;62005;50.082;8.988;2023-07-09T02:42:10;100769.47;;;20.67;66.37
73700;BME280;62005;50.082;8.988;2023-07-09T02:44:36;100730.81;;;20.38;65.66
73700;BME280;62005;50.082;8.988;2023-07-09T02:47:02;100776.88;;;20.61;65.44
73700;BME280;62005;50.082;8.988;2023-07-09T02:49:27;100783.50;;;20.60;65.16
73700;BME280;62005;50.082;8.988;2023-07-09T02:51:53;100759.34;;;20.47;65.33
73700;BME280;62005;50.082;8.988;2023-07-09T02:54:18;100774.72;;;20.53;65.80
73700;BME280;62005;50.082;8.988;2023-07-09T02:56:44;100777.47;;;20.48;65.11
73700;BME280;62005;50.082;8.988;2023-07-09T02:59:09;100767.88;;;20.36;65.70
73700;BME280;62005;50.082;8.988;2023-07-09T03:01:34;100779.69;;;20.36;66.72
73700;BME280;62005;50.082;8.988;2023-07-09T03:04:01;100776.94;;;20.26;66.56
73700;BME280;62005;50.082;8.988;2023-07-09T03:06:28;100777.50;;;20.28;66.49
73700;BME280;62005;50.082;8.988;2023-07-09T03:08:53;100784.94;;;20.28;66.46
73700;BME280;62005;50.082;8.988;2023-07-09T03:11:19;100783.53;;;20.25;66.18
73700;BME280;62005;50.082;8.988;2023-07-09T03:13:45;100783.53;;;20.25;67.01
73700;BME280;62005;50.082;8.988;2023-07-09T03:16:12;100781.91;;;20.24;66.19
73700;BME280;62005;50.082;8.988;2023-07-09T03:18:37;100773.13;;;20.22;66.40
73700;BME280;62005;50.082;8.988;2023-07-09T03:21:03;100777.22;;;20.25;66.17
73700;BME280;62005;50.082;8.988;2023-07-09T03:23:29;100773.69;;;20.24;65.85
73700;BME280;62005;50.082;8.988;2023-07-09T03:25:55;100776.94;;;20.21;65.75
73700;BME280;62005;50.082;8.988;2023-07-09T03:28:21;100782.44;;;20.21;65.81
73700;BME280;62005;50.082;8.988;2023-07-09T03:30:47;100777.50;;;20.18;65.79
73700;BME280;62005;50.082;8.988;2023-07-09T03:33:15;100772.84;;;20.19;65.14
73700;BME280;62005;50.082;8.988;2023-07-09T03:35:41;100783.00;;;20.18;65.49
73700;BME280;62005;50.082;8.988;2023-07-09T03:38:09;100791.22;;;20.23;65.12
73700;BME280;62005;50.082;8.988;2023-07-09T03:40:35;100803.88;;;20.24;66.09
73700;BME280;62005;50.082;8.988;2023-07-09T03:43:03;100791.22;;;20.18;65.43
73700;BME280;62005;50.082;8.988;2023-07-09T03:45:29;100802.78;;;20.20;66.13
73700;BME280;62005;50.082;8.988;2023-07-09T03:47:54;100789.03;;;20.15;65.52
73700;BME280;62005;50.082;8.988;2023-07-09T03:50:21;100792.34;;;20.17;65.92
73700;BME280;62005;50.082;8.988;2023-07-09T03:52:47;100794.53;;;20.15;65.72
73700;BME280;62005;50.082;8.988;2023-07-09T03:55:12;100805.78;;;20.19;66.11
73700;BME280;62005;50.082;8.988;2023-07-09T03:57:38;100806.06;;;20.22;66.30
73700;BME280;62005;50.082;8.988;2023-07-09T04:00:04;100801.38;;;20.13;67.62
73700;BME280;62005;50.082;8.988;2023-07-09T04:02:30;100786.81;;;20.07;66.20
73700;BME280;62005;50.082;8.988;2023-07-09T04:04:56;100802.19;;;20.13;66.43
73700;BME280;62005;50.082;8.988;2023-07-09T04:07:21;100805.19;;;20.12;67.44
73700;BME280;62005;50.082;8.988;2023-07-09T04:09:47;100814.81;;;20.14;66.74
73700;BME280;62005;50.082;8.988;2023-07-09T04:12:13;100819.25;;;20.15;66.82
73700;BME280;62005;50.082;8.988;2023-07-09T04:14:38;100801.66;;;20.06;66.65
73700;BME280;62005;50.082;8.988;2023-07-09T04:17:05;100822.50;;;20.12;66.66
73700;BME280;62005;50.082;8.988;2023-07-09T04:19:33;100814.53;;;20.11;67.92
73700;BME280;62005;50.082;8.988;2023-07-09T04:21:59;100824.97;;;20.14;66.72
73700;BME280;62005;50.082;8.988;2023-07-09T04:24:24;100811.00;;;20.15;66.94
73700;BME280;62005;50.082;8.988;2023-07-09T04:26:52;100821.72;;;20.22;67.30
73700;BME280;62005;50.082;8.988;2023-07-09T04:29:22;100817.06;;;20.22;67.19
73700;BME280;62005;50.082;8.988;2023-07-09T04:31:47;100818.13;;;20.36;66.65
73700;BME280;62005;50.082;8.988;2023-07-09T04:34:12;100821.16;;;20.45;67.11
73700;BME280;62005;50.082;8.988;2023-07-09T04:36:37;100819.22;;;20.55;66.67
73700;BME280;62005;50.082;8.988;2023-07-09T04:39:03;100821.13;;;20.65;66.88
73700;BME280;62005;50.082;8.988;2023-07-09T04:41:29;100810.38;;;20.79;66.22
73700;BME280;62005;50.082;8.988;2023-07-09T04:43:54;100816.91;;;20.93;66.41
73700;BME280;62005;50.082;8.988;2023-07-09T04:46:19;100808.66;;;21.08;67.60
73700;BME280;62005;50.082;8.988;2023-07-09T04:48:45;100817.63;;;21.33;67.38
73700;BME280;62005;50.082;8.988;2023-07-09T04:51:10;100822.72;;;21.60;67.57
73700;BME280;62005;50.082;8.988;2023-07-09T04:53:36;100817.06;;;21.85;67.07
73700;BME280;62005;50.082;8.988;2023-07-09T04:56:01;100814.06;;;22.15;65.95
73700;BME280;62005;50.082;8.988;2023-07-09T04:58:28;100819.91;;;22.42;65.44
73700;BME280;62005;50.082;8.988;2023-07-09T05:00:57;100805.91;;;22.67;64.78
73700;BME280;62005;50.082;8.988;2023-07-09T05:03:22;100811.59;;;22.99;64.34
73700;BME280;62005;50.082;8.988;2023-07-09T05:05:48;100821.16;;;23.31;64.22
73700;BME280;62005;50.082;8.988;2023-07-09T05:08:13;100818.06;;;23.56;63.13
73700;BME280;62005;50.082;8.988;2023-07-09T05:10:46;100816.19;;;23.88;62.20
73700;BME280;62005;50.082;8.988;2023-07-09T05:13:12;100812.47;;;24.16;60.35
73700;BME280;62005;50.082;8.988;2023-07-09T05:15:41;100819.13;;;24.48;60.01
73700;BME280;62005;50.082;8.988;2023-07-09T05:18:07;100809.19;;;24.79;58.88
73700;BME280;62005;50.082;8.988;2023-07-09T05:20:34;100817.56;;;25.14;57.20
73700;BME280;62005;50.082;8.988;2023-07-09T05:22:59;100820.06;;;25.43;56.67
73700;BME280;62005;50.082;8.988;2023-07-09T05:25:25;100812.81;;;25.69;55.63
73700;BME280;62005;50.082;8.988;2023-07-09T05:27:50;100786.13;;;25.73;54.29
73700;BME280;62005;50.082;8.988;2023-07-09T05:30:16;100817.44;;;25.96;52.83
73700;BME280;62005;50.082;8.988;2023-07-09T05:32:42;100815.97;;;26.12;52.29
73700;BME280;62005;50.082;8.988;2023-07-09T05:35:07;100800.56;;;26.19;52.77
73700;BME280;62005;50.082;8.988;2023-07-09T05:37:33;100803.28;;;26.41;51.54
73700;BME280;62005;50.082;8.988;2023-07-09T05:39:58;100806.75;;;26.47;51.43
73700;BME280;62005;50.082;8.988;2023-07-09T05:42:24;100807.63;;;26.56;51.85
73700;BME280;62005;50.082;8.988;2023-07-09T05:44:49;100809.25;;;26.79;51.04
73700;BME280;62005;50.082;8.988;2023-07-09T05:47:14;100803.50;;;27.15;49.70
73700;BME280;62005;50.082;8.988;2023-07-09T05:49:40;100806.84;;;27.42;49.19
73700;BME280;62005;50.082;8.988;2023-07-09T05:52:05;100803.94;;;27.47;48.51
73700;BME280;62005;50.082;8.988;2023-07-09T05:54:31;100802.47;;;27.67;47.86
73700;BME280;62005;50.082;8.988;2023-07-09T05:56:57;100818.34;;;27.83;47.46
73700;BME280;62005;50.082;8.988;2023-07-09T05:59:22;100815.78;;;27.95;47.15
73700;BME280;62005;50.082;8.988;2023-07-09T06:01:47;100808.88;;;28.01;46.66
73700;BME280;62005;50.082;8.988;2023-07-09T06:04:13;100805.28;;;28.27;45.25
73700;BME280;62005;50.082;8.988;2023-07-09T06:06:39;100812.78;;;28.52;45.31
73700;BME280;62005;50.082;8.988;2023-07-09T06:09:06;100799.19;;;28.59;45.94
73700;BME280;62005;50.082;8.988;2023-07-09T06:11:32;100819.56;;;28.80;45.03
73700;BME280;62005;50.082;8.988;2023-07-09T06:13:57;100829.31;;;29.03;44.91
73700;BME280;62005;50.082;8.988;2023-07-09T06:16:23;100822.34;;;29.26;44.17
73700;BME280;62005;50.082;8.988;2023-07-09T06:18:49;100830.41;;;29.48;44.73
73700;BME280;62005;50.082;8.988;2023-07-09T06:21:14;100815.41;;;29.61;43.66
73700;BME280;62005;50.082;8.988;2023-07-09T06:23:40;100818.97;;;29.70;44.57
73700;BME280;62005;50.082;8.988;2023-07-09T06:26:05;100812.94;;;29.68;42.94
73700;BME280;62005;50.082;8.988;2023-07-09T06:28:31;100829.50;;;29.85;43.47
73700;BME280;62005;50.082;8.988;2023-07-09T06:30:57;100828.16;;;29.91;41.74
73700;BME280;62005;50.082;8.988;2023-07-09T06:33:23;100810.75;;;29.94;43.28
73700;BME280;62005;50.082;8.988;2023-07-09T06:35:50;100827.78;;;30.13;44.34
73700;BME280;62005;50.082;8.988;2023-07-09T06:38:17;100821.78;;;30.11;42.86
73700;BME280;62005;50.082;8.988;2023-07-09T06:40:43;100822.69;;;30.15;42.40
73700;BME280;62005;50.082;8.988;2023-07-09T06:43:09;100831.28;;;30.10;42.66
73700;BME280;62005;50.082;8.988;2023-07-09T06:45:34;100838.75;;;30.18;42.65
73700;BME280;62005;50.082;8.988;2023-07-09T06:48:00;100832.09;;;30.31;42.42
73700;BME280;62005;50.082;8.988;2023-07-09T06:50:25;100825.84;;;30.34;42.48
73700;BME280;62005;50.082;8.988;2023-07-09T06:52:51;100823.50;;;30.36;42.73
73700;BME280;62005;50.082;8.988;2023-07-09T06:55:16;100835.19;;;30.50;42.85
73700;BME280;62005;50.082;8.988;2023-07-09T06:57:41;100839.94;;;30.50;41.31
73700;BME280;62005;50.082;8.988;2023-07-09T07:00:07;100836.09;;;30.42;39.99
73700;BME280;62005;50.082;8.988;2023-07-09T07:02:33;100828.16;;;30.32;41.16
73700;BME280;62005;50.082;8.988;2023-07-09T07:04:59;100812.59;;;30.43;41.51
73700;BME280;62005;50.082;8.988;2023-07-09T07:07:24;100817.19;;;30.60;42.10
73700;BME280;62005;50.082;8.988;2023-07-09T07:09:49;100819.78;;;30.77;41.50
73700;BME280;62005;50.082;8.988;2023-07-09T07:12:28;100822.47;;;30.74;39.81
73700;BME280;62005;50.082;8.988;2023-07-09T07:14:55;100825.94;;;30.71;39.29
73700;BME280;62005;50.082;8.988;2023-07-09T07:17:21;100826.22;;;30.90;41.20
73700;BME280;62005;50.082;8.988;2023-07-09T07:19:46;100823.69;;;31.09;39.68
73700;BME280;62005;50.082;8.988;2023-07-09T07:22:12;100814.16;;;31.10;39.77
73700;BME280;62005;50.082;8.988;2023-07-09T07:24:38;100811.13;;;31.15;39.73
73700;BME280;62005;50.082;8.988;2023-07-09T07:27:03;100810.41;;;31.18;38.98
73700;BME280;62005;50.082;8.988;2023-07-09T07:29:29;100810.88;;;31.20;38.51
73700;BME280;62005;50.082;8.988;2023-07-09T07:31:54;100816.16;;;31.33;38.68
73700;BME280;62005;50.082;8.988;2023-07-09T07:34:20;100804.63;;;31.35;38.70
73700;BME280;62005;50.082;8.988;2023-07-09T07:36:45;100809.75;;;31.45;37.24
73700;BME280;62005;50.082;8.988;2023-07-09T07:39:10;100806.72;;;31.50;37.39
73700;BME280;62005;50.082;8.988;2023-07-09T07:41:36;100806.22;;;31.60;38.92
73700;BME280;62005;50.082;8.988;2023-07-09T07:44:01;100795.03;;;31.60;38.22
73700;BME280;62005;50.082;8.988;2023-07-09T07:46:27;100813.38;;;31.85;38.18
73700;BME280;62005;50.082;8.988;2023-07-09T07:48:54;100809.06;;;32.00;38.52
73700;BME280;62005;50.082;8.988;2023-07-09T07:51:19;100805.59;;;32.18;38.03
73700;BME280;62005;50.082;8.988;2023-07-09T07:53:47;100801.13;;;32.29;38.07
73700;BME280;62005;50.082;8.988;2023-07-09T07:56:14;100808.94;;;32.51;37.74
73700;BME280;62005;50.082;8.988;2023-07-09T07:58:39;100789.81;;;32.53;36.79
73700;BME280;62005;50.082;8.988;2023-07-09T08:01:04;100808.81;;;32.75;36.91
73700;BME280;62005;50.082;8.988;2023-07-09T08:03:30;100811.50;;;32.87;35.59
73700;BME280;62005;50.082;8.988;2023-07-09T08:05:55;100811.81;;;32.98;36.82
73700;BME280;62005;50.082;8.988;2023-07-09T08:08:21;100811.19;;;33.04;36.47
73700;BME280;62005;50.082;8.988;2023-07-09T08:10:46;100813.81;;;33.13;35.41
73700;BME280;62005;50.082;8.988;2023-07-09T08:13:12;100813.16;;;33.20;35.07
73700;BME280;62005;50.082;8.988;2023-07-09T08:15:38;100806.22;;;33.14;35.60
73700;BME280;62005;50.082;8.988;2023-07-09T08:18:03;100811.47;;;33.15;34.61
73700;BME280;62005;50.082;8.988;2023-07-09T08:20:29;100792.72;;;33.19;35.30
73700;BME280;62005;50.082;8.988;2023-07-09T08:22:54;100794.81;;;33.22;35.23
73700;BME280;62005;50.082;8.988;2023-07-09T08:25:20;100791.44;;;33.32;34.79
73700;BME280;62005;50.082;8.988;2023-07-09T08:27:45;100800.13;;;33.43;36.37
73700;BME280;62005;50.082;8.988;2023-07-09T08:30:10;100792.94;;;33.61;34.79
73700;BME280;62005;50.082;8.988;2023-07-09T08:32:36;100792.72;;;33.69;34.96
73700;BME280;62005;50.082;8.988;2023-07-09T08:35:01;100803.44;;;33.83;33.96
73700;BME280;62005;50.082;8.988;2023-07-09T08:37:27;100796.19;;;33.82;35.57
73700;BME280;62005;50.082;8.988;2023-07-09T08:39:52;100788.22;;;33.84;34.31
73700;BME280;62005;50.082;8.988;2023-07-09T08:42:26;100790.94;;;33.96;35.15
73700;BME280;62005;50.082;8.988;2023-07-09T08:45:15;100782.22;;;34.01;34.85
73700;BME280;62005;50.082;8.988;2023-07-09T08:48:10;100790.34;;;34.06;35.32
73700;BME280;62005;50.082;8.988;2023-07-09T08:50:42;100777.63;;;34.12;34.72
73700;BME280;62005;50.082;8.988;2023-07-09T08:53:21;100781.16;;;34.28;35.29
73700;BME280;62005;50.082;8.988;2023-07-09T08:55:50;100778.03;;;34.33;34.75
73700;BME280;62005;50.082;8.988;2023-07-09T08:58:29;100777.78;;;34.19;33.42
73700;BME280;62005;50.082;8.988;2023-07-09T09:01:01;100785.28;;;34.34;35.45
73700;BME280;62005;50.082;8.988;2023-07-09T09:06:10;100777.63;;;34.12;33.69
73700;BME280;62005;50.082;8.988;2023-07-09T09:11:12;100783.94;;;34.28;34.58
73700;BME280;62005;50.082;8.988;2023-07-09T09:13:40;100784.53;;;34.37;34.48
73700;BME280;62005;50.082;8.988;2023-07-09T09:16:14;100787.97;;;34.46;34.39
73700;BME280;62005;50.082;8.988;2023-07-09T09:18:43;100775.91;;;34.46;34.79
73700;BME280;62005;50.082;8.988;2023-07-09T09:21:25;100787.53;;;34.67;33.97
73700;BME280;62005;50.082;8.988;2023-07-09T09:23:54;100769.22;;;34.76;33.57
73700;BME280;62005;50.082;8.988;2023-07-09T09:26:28;100769.59;;;34.75;33.15
73700;BME280;62005;50.082;8.988;2023-07-09T09:28:54;100774.53;;;34.81;33.52
73700;BME280;62005;50.082;8.988;2023-07-09T09:31:20;100767.00;;;34.85;32.85
73700;BME280;62005;50.082;8.988;2023-07-09T09:33:48;100758.28;;;34.90;33.43
73700;BME280;62005;50.082;8.988;2023-07-09T09:36:20;100764.03;;;34.97;33.00
73700;BME280;62005;50.082;8.988;2023-07-09T09:38:46;100754.38;;;34.98;33.39
73700;BME280;62005;50.082;8.988;2023-07-09T09:41:15;100760.50;;;35.04;33.86
73700;BME280;62005;50.082;8.988;2023-07-09T09:43:42;100763.34;;;35.07;32.82
73700;BME280;62005;50.082;8.988;2023-07-09T09:46:09;100766.59;;;35.09;32.58
73700;BME280;62005;50.082;8.988;2023-07-09T09:48:45;100765.84;;;35.12;32.98
73700;BME280;62005;50.082;8.988;2023-07-09T09:51:12;100763.16;;;35.19;32.92
73700;BME280;62005;50.082;8.988;2023-07-09T09:53:45;100774.41;;;35.19;32.44
73700;BME280;62005;50.082;8.988;2023-07-09T09:56:20;100766.91;;;35.27;33.26
73700;BME280;62005;50.082;8.988;2023-07-09T09:58:52;100770.31;;;35.39;33.43
73700;BME280;62005;50.082;8.988;2023-07-09T10:01:19;100759.88;;;35.40;31.81
73700;BME280;62005;50.082;8.988;2023-07-09T10:03:47;100769.38;;;35.32;32.46
73700;BME280;62005;50.082;8.988;2023-07-09T10:06:21;100773.56;;;35.41;32.58
73700;BME280;62005;50.082;8.988;2023-07-09T10:08:56;100768.06;;;35.49;31.00
73700;BME280;62005;50.082;8.988;2023-07-09T10:11:48;100768.72;;;35.38;31.66
73700;BME280;62005;50.082;8.988;2023-07-09T10:17:42;100760.78;;;35.21;31.74
73700;BME280;62005;50.082;8.988;2023-07-09T10:23:31;100755.16;;;35.47;32.31
73700;BME280;62005;50.082;8.988;2023-07-09T10:26:11;100755.22;;;35.51;31.33
73700;BME280;62005;50.082;8.988;2023-07-09T10:37:13;100741.09;;;35.47;31.70
73700;BME280;62005;50.082;8.988;2023-07-09T10:39:47;100735.03;;;35.45;32.26
73700;BME280;62005;50.082;8.988;2023-07-09T10:42:25;100735.13;;;35.53;32.18
73700;BME280;62005;50.082;8.988;2023-07-09T10:45:14;100732.66;;;35.47;30.28
73700;BME280;62005;50.082;8.988;2023-07-09T10:47:48;100728.25;;;35.47;32.59
73700;BME280;62005;50.082;8.988;2023-07-09T10:50:18;100724.75;;;35.57;31.13
73700;BME280;62005;50.082;8.988;2023-07-09T10:52:50;100714.94;;;35.43;31.18
73700;BME280;62005;50.082;8.988;2023-07-09T10:55:42;100715.44;;;35.53;30.74
73700;BME280;62005;50.082;8.988;2023-07-09T10:58:33;100712.72;;;35.60;30.48
73700;BME280;62005;50.082;8.988;2023-07-09T11:01:00;100709.16;;;35.63;30.48
73700;BME280;62005;50.082;8.988;2023-07-09T11:03:35;100703.22;;;35.71;30.57
73700;BME280;62005;50.082;8.988;2023-07-09T11:06:04;100706.94;;;35.79;30.38
73700;BME280;62005;50.082;8.988;2023-07-09T11:08:37;100704.84;;;35.72;30.16
73700;BME280;62005;50.082;8.988;2023-07-09T11:11:14;100707.22;;;35.67;30.08
73700;BME280;62005;50.082;8.988;2023-07-09T11:13:45;100705.56;;;35.66;29.34
73700;BME280;62005;50.082;8.988;2023-07-09T11:16:15;100697.41;;;35.54;29.60
73700;BME280;62005;50.082;8.988;2023-07-09T11:18:55;100697.41;;;35.57;30.94
73700;BME280;62005;50.082;8.988;2023-07-09T11:21:21;100691.06;;;35.64;31.40
73700;BME280;62005;50.082;8.988;2023-07-09T11:23:53;100697.59;;;35.71;30.81
73700;BME280;62005;50.082;8.988;2023-07-09T11:26:35;100690.47;;;35.81;30.74
73700;BME280;62005;50.082;8.988;2023-07-09T11:36:57;100691.59;;;36.06;30.86
73700;BME280;62005;50.082;8.988;2023-07-09T11:39:42;100681.25;;;36.17;31.09
73700;BME280;62005;50.082;8.988;2023-07-09T11:44:54;100692.59;;;36.24;29.71
73700;BME280;62005;50.082;8.988;2023-07-09T11:47:25;100680.53;;;36.27;28.86
73700;BME280;62005;50.082;8.988;2023-07-09T11:50:00;100678.09;;;36.22;29.26
73700;BME280;62005;50.082;8.988;2023-07-09T11:52:35;100670.16;;;35.94;28.78
73700;BME280;62005;50.082;8.988;2023-07-09T11:55:19;100658.16;;;35.68;28.43
73700;BME280;62005;50.082;8.988;2023-07-09T11:57:48;100674.28;;;35.71;28.31
73700;BME280;62005;50.082;8.988;2023-07-09T12:00:14;100671.13;;;35.76;29.95
73700;BME280;62005;50.082;8.988;2023-07-09T12:02:40;100668.81;;;35.85;30.52
73700;BME280;62005;50.082;8.988;2023-07-09T12:05:06;100664.06;;;35.89;28.10
73700;BME280;62005;50.082;8.988;2023-07-09T12:07:32;100660.84;;;35.90;28.20
73700;BME280;62005;50.082;8.988;2023-07-09T12:09:57;100655.09;;;35.80;27.00
73700;BME280;62005;50.082;8.988;2023-07-09T12:12:23;100659.13;;;35.82;27.82
73700;BME280;62005;50.082;8.988;2023-07-09T12:14:50;100667.31;;;35.91;27.83
73700;BME280;62005;50.082;8.988;2023-07-09T12:17:15;100654.41;;;35.86;27.48
73700;BME280;62005;50.082;8.988;2023-07-09T12:19:41;100655.94;;;35.84;27.87
73700;BME280;62005;50.082;8.988;2023-07-09T12:22:09;100656.03;;;35.91;26.28
73700;BME280;62005;50.082;8.988;2023-07-09T12:24:42;100645.44;;;35.81;27.12
73700;BME280;62005;50.082;8.988;2023-07-09T12:27:20;100636.63;;;35.82;27.87
73700;BME280;62005;50.082;8.988;2023-07-09T12:29:46;100636.38;;;35.94;29.31
73700;BME280;62005;50.082;8.988;2023-07-09T12:32:16;100642.13;;;36.05;26.62
73700;BME280;62005;50.082;8.988;2023-07-09T12:34:46;100644.09;;;36.01;27.66
73700;BME280;62005;50.082;8.988;2023-07-09T12:37:13;100618.69;;;35.94;27.77
73700;BME280;62005;50.082;8.988;2023-07-09T12:39:40;100620.41;;;36.05;28.23
73700;BME280;62005;50.082;8.988;2023-07-09T12:42:05;100616.47;;;36.17;27.67
73700;BME280;62005;50.082;8.988;2023-07-09T12:44:34;100623.00;;;36.24;28.08
73700;BME280;62005;50.082;8.988;2023-07-09T12:47:01;100608.81;;;36.14;26.88
73700;BME280;62005;50.082;8.988;2023-07-09T12:49:28;100617.63;;;36.09;25.88
73700;BME280;62005;50.082;8.988;2023-07-09T12:52:00;100602.22;;;35.96;26.96
73700;BME280;62005;50.082;8.988;2023-07-09T12:54:28;100603.78;;;35.90;26.17
73700;BME280;62005;50.082;8.988;2023-07-09T12:56:55;100586.28;;;35.74;27.53
73700;BME280;62005;50.082;8.988;2023-07-09T12:59:24;100590.72;;;35.75;26.58
73700;BME280;62005;50.082;8.988;2023-07-09T13:02:13;100577.84;;;35.74;27.65
73700;BME280;62005;50.082;8.988;2023-07-09T13:04:40;100573.09;;;35.81;28.25
73700;BME280;62005;50.082;8.988;2023-07-09T13:07:26;100558.63;;;35.83;27.88
73700;BME280;62005;50.082;8.988;2023-07-09T13:09:54;100567.50;;;35.85;27.98
73700;BME280;62005;50.082;8.988;2023-07-09T13:12:20;100571.09;;;35.82;27.75
73700;BME280;62005;50.082;8.988;2023-07-09T13:14:53;100563.84;;;35.81;27.45
73700;BME280;62005;50.082;8.988;2023-07-09T13:17:19;100562.66;;;35.82;27.99
73700;BME280;62005;50.082;8.988;2023-07-09T13:19:45;100564.25;;;35.83;27.75
73700;BME280;62005;50.082;8.988;2023-07-09T13:22:17;100557.03;;;35.82;27.08
73700;BME280;62005;50.082;8.988;2023-07-09T13:24:44;100556.25;;;35.85;27.60
73700;BME280;62005;50.082;8.988;2023-07-09T13:27:14;100556.31;;;35.88;27.34
73700;BME280;62005;50.082;8.988;2023-07-09T13:29:40;100558.63;;;35.83;28.30
73700;BME280;62005;50.082;8.988;2023-07-09T13:32:11;100548.25;;;35.87;28.10
73700;BME280;62005;50.082;8.988;2023-07-09T13:34:37;100545.81;;;35.85;28.21